Time;durP1;ratioP1;P1;durP2;ratioP2;P2;SDS_P1;SDS_P2;PMS_P1;PMS_P2;Temp;Humidity;BMP_temperature;BMP_pressure;BME280_temperature;BME280_humidity;BME280_pressure;Samples;Min_cycle;Max_cycle;Signal;HPM_P1;HPM_P2
2023/06/09 00:02:06;;;;;;;16.13;6.75;;;14.70;99.90;;;;;;5071050;28;20124;-86
2023/06/09 00:04:35;;;;;;;16.13;6.75;;;14.70;99.90;;;;;;5054393;28;20040;-86
2023/06/09 00:07:02;;;;;;;11.73;3.72;;;14.80;99.90;;;;;;5070684;28;20071;-86
2023/06/09 00:09:31;;;;;;;15.65;6.55;;;14.70;99.90;;;;;;5054266;28;20045;-86
2023/06/09 00:11:57;;;;;;;17.50;4.03;;;14.70;99.90;;;;;;5070475;28;20037;-86
2023/06/09 00:14:23;;;;;;;17.02;6.95;;;14.70;99.90;;;;;;5070884;28;20048;-87
2023/06/09 00:16:51;;;;;;;13.30;6.22;;;14.70;99.90;;;;;;5054148;28;20128;-86
2023/06/09 00:19:17;;;;;;;15.80;4.50;;;14.70;99.90;;;;;;5070459;28;20097;-86
2023/06/09 00:21:50;;;;;;;17.52;6.90;;;14.60;99.90;;;;;;5053607;28;20074;-86
2023/06/09 00:24:23;;;;;;;17.33;4.82;;;14.60;99.90;;;;;;5070403;28;20533;-86
2023/06/09 00:26:50;;;;;;;13.20;3.83;;;14.60;99.90;;;;;;5070827;28;20052;-86
2023/06/09 00:29:17;;;;;;;18.13;7.68;;;14.50;99.90;;;;;;5070695;28;20047;-86
2023/06/09 00:31:43;;;;;;;12.60;4.22;;;14.50;99.90;;;;;;5070442;28;20044;-87
2023/06/09 00:34:09;;;;;;;15.73;7.30;;;14.50;99.90;;;;;;5070337;28;20044;-86
2023/06/09 00:36:36;;;;;;;17.85;7.57;;;14.50;99.90;;;;;;5053662;28;20036;-86
2023/06/09 00:39:02;;;;;;;11.63;4.65;;;14.50;99.90;;;;;;5070726;28;20404;-86
2023/06/09 00:41:27;;;;;;;13.98;4.15;;;14.40;99.90;;;;;;5069902;28;20036;-86
2023/06/09 00:43:55;;;;;;;18.35;8.30;;;14.30;99.90;;;;;;5070345;28;20043;-86
2023/06/09 00:46:22;;;;;;;15.45;4.43;;;14.40;99.90;;;;;;5053607;28;20037;-86
2023/06/09 00:48:49;;;;;;;16.55;3.70;;;14.30;99.90;;;;;;5070155;28;20048;-86
2023/06/09 00:51:15;;;;;;;17.40;8.20;;;14.30;99.90;;;;;;5070095;28;20497;-86
2023/06/09 00:53:41;;;;;;;18.05;7.82;;;14.40;99.90;;;;;;5053740;28;20041;-86
2023/06/09 00:56:07;;;;;;;17.27;7.68;;;14.40;99.90;;;;;;5070120;28;20589;-86
2023/06/09 00:58:33;;;;;;;12.20;4.18;;;14.40;99.90;;;;;;5070899;28;20033;-86
2023/06/09 01:00:59;;;;;;;17.38;7.68;;;14.30;99.90;;;;;;5057233;28;20504;-86
2023/06/09 01:03:26;;;;;;;19.45;8.00;;;14.30;99.90;;;;;;5074317;28;20506;-86
2023/06/09 01:06:02;;;;;;;17.35;8.27;;;14.40;99.90;;;;;;5057808;28;20032;-86
2023/06/09 01:08:36;;;;;;;18.15;4.60;;;14.30;99.90;;;;;;5074099;28;20090;-86
2023/06/09 01:11:25;;;;;;;17.92;4.78;;;14.20;99.90;;;;;;5057118;28;20051;-86
2023/06/09 01:13:59;;;;;;;18.20;7.93;;;14.10;99.90;;;;;;5057279;28;20046;-86
2023/06/09 01:16:42;;;;;;;12.73;4.38;;;14.10;99.90;;;;;;5074024;28;20086;-86
2023/06/09 01:19:20;;;;;;;16.88;4.57;;;14.10;99.90;;;;;;5073826;28;20033;-86
2023/06/09 01:21:48;;;;;;;15.73;5.22;;;14.00;99.90;;;;;;5073586;28;20086;-86
2023/06/09 01:24:33;;;;;;;19.52;9.02;;;13.90;99.90;;;;;;5056908;28;20127;-86
2023/06/09 01:27:01;;;;;;;14.07;5.13;;;14.00;99.90;;;;;;5073999;28;20121;-86
2023/06/09 01:29:32;;;;;;;15.30;4.90;;;13.90;99.90;;;;;;5073654;28;20037;-86
2023/06/09 01:32:00;;;;;;;20.13;8.65;;;13.90;99.90;;;;;;5057087;28;20032;-86
2023/06/09 01:34:26;;;;;;;14.40;5.30;;;13.90;99.90;;;;;;5056749;28;20033;-86
2023/06/09 01:36:53;;;;;;;14.98;5.10;;;13.90;99.90;;;;;;5073754;28;20044;-86
2023/06/09 01:39:19;;;;;;;14.38;5.38;;;13.90;99.90;;;;;;5056792;28;20039;-86
2023/06/09 01:41:44;;;;;;;17.50;8.15;;;13.80;99.90;;;;;;5073335;28;20131;-86
2023/06/09 01:44:10;;;;;;;16.85;5.18;;;13.90;99.90;;;;;;5073765;28;20409;-86
2023/06/09 01:46:36;;;;;;;13.85;4.28;;;13.90;99.90;;;;;;5073251;28;20658;-86
2023/06/09 01:49:13;;;;;;;13.68;5.32;;;13.80;99.90;;;;;;5056630;28;20048;-86
2023/06/09 01:51:50;;;;;;;18.80;8.15;;;13.80;99.90;;;;;;5056233;28;20042;-86
2023/06/09 01:54:23;;;;;;;13.63;4.97;;;13.90;99.90;;;;;;5056816;28;20041;-86
2023/06/09 01:57:02;;;;;;;22.50;8.95;;;13.80;99.90;;;;;;5073339;28;20040;-86
2023/06/09 01:59:34;;;;;;;18.58;8.32;;;13.90;99.90;;;;;;5072903;28;20120;-86
2023/06/09 02:02:01;;;;;;;15.85;4.70;;;13.90;99.90;;;;;;5073175;28;20044;-86
2023/06/09 02:04:28;;;;;;;14.00;4.90;;;13.90;99.90;;;;;;5073360;28;20463;-86
2023/06/09 02:06:54;;;;;;;11.68;4.25;;;13.80;99.90;;;;;;5073049;28;20490;-86
2023/06/09 02:09:21;;;;;;;19.63;8.90;;;13.70;99.90;;;;;;5073249;28;20051;-86
2023/06/09 02:11:51;;;;;;;15.15;5.45;;;13.80;99.90;;;;;;5071312;28;20032;-86
2023/06/09 02:14:17;;;;;;;17.90;8.77;;;13.70;99.90;;;;;;5072681;28;20089;-86
2023/06/09 02:16:43;;;;;;;16.38;5.57;;;13.80;99.90;;;;;;5072900;28;20040;-86
2023/06/09 02:19:12;;;;;;;19.23;9.80;;;13.70;99.90;;;;;;5073028;28;20035;-86
2023/06/09 02:21:38;;;;;;;18.73;5.10;;;13.70;99.90;;;;;;5072514;28;20125;-86
2023/06/09 02:24:04;;;;;;;17.67;9.25;;;13.70;99.90;;;;;;5071768;28;20410;-86
2023/06/09 02:26:30;;;;;;;17.90;5.03;;;13.70;99.90;;;;;;5073028;28;20105;-86
2023/06/09 02:28:56;;;;;;;9.38;3.92;;;13.70;99.90;;;;;;5055923;28;20127;-85
2023/06/09 02:31:22;;;;;;;13.68;5.10;;;13.60;99.90;;;;;;5072237;28;20163;-86
2023/06/09 02:33:47;;;;;;;16.42;4.60;;;13.60;99.90;;;;;;5055905;28;20036;-86
2023/06/09 02:36:13;;;;;;;20.67;9.02;;;13.60;99.90;;;;;;5072297;28;20402;-86
2023/06/09 02:38:39;;;;;;;20.65;9.27;;;13.60;99.90;;;;;;5072545;28;20565;-86
2023/06/09 02:41:05;;;;;;;18.20;5.25;;;13.70;99.90;;;;;;5072289;28;20456;-86
2023/06/09 02:43:30;;;;;;;15.93;5.50;;;13.60;99.90;;;;;;5072369;28;20521;-86
2023/06/09 02:45:56;;;;;;;17.25;5.95;;;13.50;99.90;;;;;;5055867;28;20044;-86
2023/06/09 02:48:21;;;;;;;13.65;6.13;;;13.50;99.90;;;;;;5072526;28;20508;-86
2023/06/09 02:50:47;;;;;;;21.58;10.45;;;13.50;99.90;;;;;;5071848;28;20478;-86
2023/06/09 02:53:13;;;;;;;15.68;4.38;;;13.50;99.90;;;;;;5072018;28;20409;-86
2023/06/09 02:55:38;;;;;;;15.43;5.13;;;13.50;99.90;;;;;;5072247;28;20083;-86
2023/06/09 02:58:04;;;;;;;20.85;11.00;;;13.50;99.90;;;;;;5072033;28;20515;-86
2023/06/09 03:00:31;;;;;;;12.73;5.53;;;13.50;99.90;;;;;;5071933;28;20036;-86
2023/06/09 03:02:56;;;;;;;16.85;5.35;;;13.40;99.90;;;;;;5055319;28;20069;-86
2023/06/09 03:05:24;;;;;;;19.65;10.38;;;13.40;99.90;;;;;;5055265;28;20048;-86
2023/06/09 03:07:50;;;;;;;19.45;5.82;;;13.40;99.90;;;;;;5071919;28;20126;-86
2023/06/09 03:10:16;;;;;;;22.30;10.27;;;13.40;99.90;;;;;;5055151;28;20056;-86
2023/06/09 03:12:42;;;;;;;16.42;5.00;;;13.40;99.90;;;;;;5071908;28;20040;-86
2023/06/09 03:15:08;;;;;;;20.67;5.85;;;13.40;99.90;;;;;;5071700;28;20049;-86
2023/06/09 03:17:34;;;;;;;15.15;5.28;;;13.30;99.90;;;;;;5071959;28;20397;-86
2023/06/09 03:20:00;;;;;;;20.45;10.27;;;13.30;99.90;;;;;;5054724;28;20449;-86
2023/06/09 03:22:27;;;;;;;15.85;5.30;;;13.40;99.90;;;;;;5071499;28;20563;-86
2023/06/09 03:24:53;;;;;;;20.23;6.38;;;13.40;99.90;;;;;;5071714;28;20405;-86
2023/06/09 03:27:18;;;;;;;20.17;11.15;;;13.30;99.90;;;;;;5071711;28;20539;-86
2023/06/09 03:29:44;;;;;;;19.33;7.32;;;13.40;99.90;;;;;;5054461;28;20044;-86
2023/06/09 03:32:10;;;;;;;22.20;11.23;;;13.40;99.90;;;;;;5054797;28;20040;-86
2023/06/09 03:34:36;;;;;;;16.45;6.25;;;13.40;99.90;;;;;;5072342;28;20429;-86
2023/06/09 03:37:03;;;;;;;14.02;5.00;;;13.40;99.90;;;;;;5071281;28;20397;-86
2023/06/09 03:39:28;;;;;;;13.95;5.60;;;13.30;99.90;;;;;;5070925;28;20041;-86
2023/06/09 03:41:56;;;;;;;18.25;6.05;;;13.30;99.90;;;;;;5071097;28;20046;-86
2023/06/09 03:44:22;;;;;;;18.20;6.80;;;13.30;99.90;;;;;;5054547;28;20093;-86
2023/06/09 03:46:47;;;;;;;14.75;6.82;;;13.30;99.90;;;;;;5071061;28;20037;-86
2023/06/09 03:49:13;;;;;;;14.30;5.85;;;13.30;99.90;;;;;;5054510;28;20036;-86
2023/06/09 03:51:39;;;;;;;16.92;6.75;;;13.30;99.90;;;;;;5070599;28;20072;-86
2023/06/09 03:54:05;;;;;;;20.73;6.85;;;13.30;99.90;;;;;;5054380;28;20118;-86
2023/06/09 03:56:30;;;;;;;20.60;7.60;;;13.20;99.90;;;;;;5054046;28;20047;-86
2023/06/09 03:58:57;;;;;;;21.40;8.00;;;13.30;99.90;;;;;;5070984;28;20124;-85
2023/06/09 04:01:25;;;;;;;24.73;12.43;;;13.20;99.90;;;;;;5070745;28;20405;-86
2023/06/09 04:03:51;;;;;;;19.15;6.47;;;13.30;99.90;;;;;;5053987;28;20502;-86
2023/06/09 04:06:16;;;;;;;14.50;5.95;;;13.30;99.90;;;;;;5070761;28;20062;-86
2023/06/09 04:08:44;;;;;;;21.27;11.45;;;13.30;99.90;;;;;;5070705;28;20127;-86
2023/06/09 04:11:10;;;;;;;20.20;6.45;;;13.30;99.90;;;;;;5070472;28;20056;-86
2023/06/09 04:13:35;;;;;;;23.63;11.38;;;13.40;99.90;;;;;;5070482;28;20036;-86
2023/06/09 04:16:01;;;;;;;20.50;11.35;;;13.40;99.90;;;;;;5070759;28;20087;-85
2023/06/09 04:18:27;;;;;;;15.43;6.25;;;13.50;99.90;;;;;;5070444;28;20513;-86
2023/06/09 04:20:52;;;;;;;23.23;12.02;;;13.50;99.90;;;;;;5070271;28;20036;-86
2023/06/09 04:23:18;;;;;;;20.85;11.98;;;13.50;99.90;;;;;;5053885;28;20037;-86
2023/06/09 04:25:45;;;;;;;18.00;6.43;;;13.60;99.90;;;;;;5053665;28;20032;-86
2023/06/09 04:28:11;;;;;;;22.05;11.50;;;13.50;99.90;;;;;;5070615;28;20036;-86
2023/06/09 04:30:38;;;;;;;15.70;6.07;;;13.50;99.90;;;;;;5070104;28;20141;-86
2023/06/09 04:33:03;;;;;;;17.17;6.75;;;13.60;99.90;;;;;;5069931;28;20043;-86
2023/06/09 04:35:30;;;;;;;16.75;6.65;;;13.50;99.90;;;;;;5069999;28;20045;-86
2023/06/09 04:38:00;;;;;;;19.50;11.57;;;13.50;99.90;;;;;;5054001;28;20453;-86
2023/06/09 04:40:26;;;;;;;23.67;11.43;;;13.60;99.90;;;;;;5069985;28;20036;-86
2023/06/09 04:42:56;;;;;;;14.90;6.50;;;13.70;99.90;;;;;;5070402;28;20040;-86
2023/06/09 04:45:34;;;;;;;22.02;12.23;;;13.70;99.90;;;;;;5053902;28;20082;-86
2023/06/09 04:48:03;;;;;;;17.02;6.32;;;13.70;99.90;;;;;;5053555;28;20036;-86
2023/06/09 04:50:33;;;;;;;18.23;6.93;;;13.70;99.90;;;;;;5069935;28;20127;-86
2023/06/09 04:53:07;;;;;;;20.10;6.93;;;13.70;99.90;;;;;;5053443;28;20079;-86
2023/06/09 04:55:35;;;;;;;21.88;11.77;;;13.70;99.90;;;;;;5070161;28;20049;-86
2023/06/09 04:58:01;;;;;;;17.23;6.82;;;13.80;99.90;;;;;;5070142;28;20084;-86
2023/06/09 05:00:28;;;;;;;18.27;6.97;;;13.90;99.90;;;;;;5053148;28;20120;-86
2023/06/09 05:02:56;;;;;;;24.38;12.80;;;13.90;99.90;;;;;;5070418;28;20115;-86
2023/06/09 05:05:23;;;;;;;23.63;12.65;;;13.90;99.90;;;;;;5066969;28;20036;-86
2023/06/09 05:07:48;;;;;;;20.77;11.88;;;14.00;99.90;;;;;;5069345;28;20524;-87
2023/06/09 05:10:14;;;;;;;18.70;6.85;;;14.10;99.90;;;;;;5068811;28;20510;-86
2023/06/09 05:12:40;;;;;;;15.95;5.85;;;14.10;99.90;;;;;;5068655;28;20041;-86
2023/06/09 05:15:06;;;;;;;16.00;6.60;;;14.00;99.90;;;;;;5068839;28;20118;-86
2023/06/09 05:17:33;;;;;;;20.38;7.60;;;14.10;99.90;;;;;;5069243;28;20386;-87
2023/06/09 05:19:59;;;;;;;17.02;7.90;;;14.10;99.90;;;;;;5068722;28;20039;-87
2023/06/09 05:22:25;;;;;;;20.90;6.80;;;14.20;99.90;;;;;;5069324;28;20427;-86
2023/06/09 05:24:51;;;;;;;22.73;12.15;;;14.20;99.90;;;;;;5069122;28;20513;-87
2023/06/09 05:27:17;;;;;;;18.55;11.27;;;14.30;99.90;;;;;;5069638;28;20039;-87
2023/06/09 05:29:43;;;;;;;21.58;7.45;;;14.40;99.90;;;;;;5052092;28;20051;-87
2023/06/09 05:32:08;;;;;;;21.52;11.60;;;14.40;99.90;;;;;;5068918;28;20459;-87
2023/06/09 05:34:34;;;;;;;16.80;7.18;;;14.50;99.90;;;;;;5068706;28;20049;-86
2023/06/09 05:37:00;;;;;;;16.00;7.15;;;14.60;99.90;;;;;;5068931;28;20123;-86
2023/06/09 05:39:26;;;;;;;19.25;7.28;;;14.60;99.90;;;;;;5068861;28;20033;-87
2023/06/09 05:41:51;;;;;;;19.65;11.20;;;14.60;99.90;;;;;;5069118;28;20040;-87
2023/06/09 05:44:18;;;;;;;16.83;7.38;;;14.70;99.90;;;;;;5069463;28;20036;-87
2023/06/09 05:46:44;;;;;;;18.67;11.40;;;14.80;99.90;;;;;;5073120;28;20111;-87
2023/06/09 05:49:09;;;;;;;15.93;7.20;;;14.90;99.90;;;;;;5073145;28;20040;-87
2023/06/09 05:51:36;;;;;;;20.58;10.73;;;15.00;99.90;;;;;;5073014;28;20494;-87
2023/06/09 05:54:02;;;;;;;16.42;7.05;;;15.10;99.90;;;;;;5056297;28;20043;-87
2023/06/09 05:56:28;;;;;;;18.80;11.40;;;15.10;99.90;;;;;;5072403;28;20045;-87
2023/06/09 05:59:03;;;;;;;19.30;8.07;;;15.20;99.90;;;;;;5072258;28;20039;-87
2023/06/09 06:01:30;;;;;;;21.02;10.77;;;15.30;99.90;;;;;;5071967;28;20044;-87
2023/06/09 06:03:56;;;;;;;21.85;7.35;;;15.40;99.90;;;;;;5055994;28;20043;-87
2023/06/09 06:06:22;;;;;;;22.65;12.38;;;15.50;99.90;;;;;;5072601;28;20048;-87
2023/06/09 06:08:48;;;;;;;22.23;11.93;;;15.50;99.90;;;;;;5072324;28;20045;-86
2023/06/09 06:11:13;;;;;;;16.10;7.28;;;15.70;99.90;;;;;;5071850;28;20394;-86
2023/06/09 06:13:39;;;;;;;20.67;10.23;;;15.70;99.90;;;;;;5071909;28;20121;-87
2023/06/09 06:16:05;;;;;;;18.55;10.38;;;15.80;99.90;;;;;;5055357;28;20124;-87
2023/06/09 06:18:30;;;;;;;19.25;10.52;;;15.90;99.90;;;;;;5071759;28;20036;-87
2023/06/09 06:20:56;;;;;;;17.67;6.72;;;16.10;99.90;;;;;;5071953;28;20093;-87
2023/06/09 06:23:21;;;;;;;18.20;9.88;;;16.10;99.90;;;;;;5055390;28;20037;-87
2023/06/09 06:25:47;;;;;;;20.50;7.47;;;16.20;99.90;;;;;;5055597;28;20411;-87
2023/06/09 06:28:13;;;;;;;17.83;10.27;;;16.30;99.90;;;;;;5072219;28;20041;-87
2023/06/09 06:30:40;;;;;;;17.98;10.35;;;16.40;99.90;;;;;;5055167;28;20097;-86
2023/06/09 06:33:06;;;;;;;18.92;9.85;;;16.50;99.90;;;;;;5072254;28;20091;-87
2023/06/09 06:35:32;;;;;;;16.02;6.82;;;16.60;99.90;;;;;;5055198;28;20043;-87
2023/06/09 06:37:58;;;;;;;14.80;6.97;;;16.70;99.90;;;;;;5071281;28;20127;-86
2023/06/09 06:40:24;;;;;;;16.92;9.43;;;16.70;99.90;;;;;;5071218;28;20037;-87
2023/06/09 06:42:51;;;;;;;17.92;9.32;;;16.80;99.90;;;;;;5071203;28;20032;-87
2023/06/09 06:45:17;;;;;;;18.90;8.75;;;16.90;99.90;;;;;;5071902;28;20101;-87
2023/06/09 06:47:43;;;;;;;18.60;10.10;;;17.00;99.90;;;;;;5071830;28;20052;-87
2023/06/09 06:50:09;;;;;;;14.80;6.68;;;17.10;99.90;;;;;;5071808;28;20048;-87
2023/06/09 06:52:36;;;;;;;17.48;7.53;;;17.20;99.90;;;;;;5071582;28;20090;-87
2023/06/09 06:55:02;;;;;;;15.85;8.85;;;17.20;99.90;;;;;;5054792;28;20048;-87
2023/06/09 06:57:27;;;;;;;17.50;9.00;;;17.30;99.90;;;;;;5070558;28;20052;-87
2023/06/09 06:59:53;;;;;;;17.98;8.68;;;17.50;99.90;;;;;;5071023;28;20039;-87
2023/06/09 07:02:18;;;;;;;15.57;8.63;;;17.60;99.90;;;;;;5055184;28;20040;-87
2023/06/09 07:04:44;;;;;;;13.95;5.57;;;17.70;99.90;;;;;;5055067;28;20414;-87
2023/06/09 07:07:10;;;;;;;19.45;9.27;;;17.80;99.90;;;;;;5055127;28;20124;-87
2023/06/09 07:09:37;;;;;;;14.38;8.38;;;17.80;99.90;;;;;;5054777;28;20063;-87
2023/06/09 07:12:02;;;;;;;13.98;8.15;;;18.00;99.90;;;;;;5054750;28;20041;-87
2023/06/09 07:14:31;;;;;;;16.05;7.85;;;18.10;99.90;;;;;;5054685;28;20525;-87
2023/06/09 07:16:57;;;;;;;16.17;7.90;;;18.20;99.90;;;;;;5072236;28;20123;-87
2023/06/09 07:19:22;;;;;;;13.70;7.50;;;18.30;99.90;;;;;;5071021;28;20131;-87
2023/06/09 07:21:48;;;;;;;15.20;7.53;;;18.40;99.90;;;;;;5070786;28;20486;-87
2023/06/09 07:24:14;;;;;;;13.57;7.63;;;18.50;99.90;;;;;;5054551;28;20044;-87
2023/06/09 07:26:39;;;;;;;15.68;7.38;;;18.60;99.90;;;;;;5071145;28;20062;-87
2023/06/09 07:29:05;;;;;;;13.80;7.18;;;18.70;99.90;;;;;;5072597;28;20036;-87
2023/06/09 07:31:31;;;;;;;14.73;7.25;;;18.80;99.90;;;;;;5070941;28;20633;-88
2023/06/09 07:33:56;;;;;;;15.77;7.32;;;18.90;99.90;;;;;;5071183;28;20041;-87
2023/06/09 07:36:22;;;;;;;13.60;6.65;;;19.00;99.90;;;;;;5070370;28;20123;-87
2023/06/09 07:38:47;;;;;;;14.13;6.78;;;19.10;99.90;;;;;;5070519;28;20044;-88
2023/06/09 07:41:13;;;;;;;16.52;7.03;;;19.20;99.90;;;;;;5053761;28;20127;-87
2023/06/09 07:43:39;;;;;;;13.18;6.88;;;19.30;99.90;;;;;;5054384;28;20033;-86
2023/06/09 07:46:05;;;;;;;15.88;6.80;;;19.40;99.90;;;;;;5071013;28;20036;-87
2023/06/09 07:48:31;;;;;;;12.77;6.90;;;19.50;99.90;;;;;;5054138;28;20123;-87
2023/06/09 07:50:56;;;;;;;14.10;6.93;;;19.60;99.90;;;;;;5070418;28;20037;-88
2023/06/09 07:53:22;;;;;;;13.85;7.05;;;19.80;99.90;;;;;;5070540;28;20569;-88
2023/06/09 07:55:48;;;;;;;15.98;7.03;;;19.90;99.90;;;;;;5053960;28;20059;-87
2023/06/09 07:58:14;;;;;;;12.45;6.53;;;20.00;99.90;;;;;;5070243;28;20459;-87
2023/06/09 08:00:40;;;;;;;13.45;6.35;;;20.10;99.90;;;;;;5053343;28;20033;-88
2023/06/09 08:03:05;;;;;;;16.70;7.90;;;20.20;99.90;;;;;;5049312;28;20649;-88
2023/06/09 08:05:31;;;;;;;13.93;6.93;;;20.30;99.50;;;;;;5050837;28;20099;-88
2023/06/09 08:08:00;;;;;;;13.45;7.07;;;20.40;98.90;;;;;;5034370;28;20036;-88
2023/06/09 08:10:26;;;;;;;15.75;7.30;;;20.50;97.40;;;;;;5068378;28;20119;-87
2023/06/09 08:12:51;;;;;;;14.38;6.97;;;20.60;96.50;;;;;;5070781;28;20517;-87
2023/06/09 08:15:17;;;;;;;15.50;8.45;;;20.70;96.50;;;;;;5070853;28;20482;-88
2023/06/09 08:17:42;;;;;;;13.98;7.57;;;20.80;96.00;;;;;;5054489;28;20090;-87
2023/06/09 08:20:08;;;;;;;12.68;6.60;;;20.90;96.20;;;;;;5053377;28;20462;-88
2023/06/09 08:22:34;;;;;;;14.10;7.03;;;21.00;95.20;;;;;;5070548;28;20032;-88
2023/06/09 08:25:00;;;;;;;13.05;7.40;;;21.10;94.40;;;;;;5053805;28;20107;-88
2023/06/09 08:27:25;;;;;;;13.30;6.70;;;21.20;93.40;;;;;;5070162;28;20047;-87
2023/06/09 08:29:51;;;;;;;12.25;7.28;;;21.30;92.40;;;;;;5070139;28;20089;-88
2023/06/09 08:32:17;;;;;;;13.18;5.57;;;21.30;92.00;;;;;;5053563;28;20055;-88
2023/06/09 08:34:43;;;;;;;11.98;6.53;;;21.50;91.70;;;;;;5053097;28;20055;-88
2023/06/09 08:37:09;;;;;;;11.43;5.90;;;21.60;91.90;;;;;;5053776;28;20414;-88
2023/06/09 08:39:35;;;;;;;15.90;6.30;;;21.70;91.60;;;;;;5070307;28;20036;-88
2023/06/09 08:42:06;;;;;;;13.68;6.65;;;21.70;91.10;;;;;;5070650;28;20037;-87
2023/06/09 08:44:40;;;;;;;15.23;6.25;;;21.80;90.60;;;;;;5054101;28;20418;-87
2023/06/09 08:47:07;;;;;;;12.45;5.97;;;22.00;90.10;;;;;;5053769;28;20044;-87
2023/06/09 08:49:34;;;;;;;10.38;5.90;;;22.00;89.50;;;;;;5053385;28;20044;-88
2023/06/09 08:52:03;;;;;;;12.93;6.30;;;22.10;88.50;;;;;;5070559;28;20036;-88
2023/06/09 08:54:30;;;;;;;14.98;6.07;;;22.20;86.90;;;;;;5071784;28;20043;-88
2023/06/09 08:56:56;;;;;;;12.90;6.30;;;22.30;87.30;;;;;;5053757;28;20045;-87
2023/06/09 08:59:23;;;;;;;13.95;5.90;;;22.40;86.20;;;;;;5054178;28;20032;-88
2023/06/09 09:01:52;;;;;;;13.35;6.38;;;22.50;85.60;;;;;;5053583;28;20401;-88
2023/06/09 09:04:18;;;;;;;15.18;6.10;;;22.60;84.60;;;;;;5053745;28;20548;-87
2023/06/09 09:06:43;;;;;;;14.95;6.05;;;22.70;84.20;;;;;;5070187;28;20045;-88
2023/06/09 09:09:09;;;;;;;12.77;5.95;;;22.80;82.90;;;;;;5053731;28;20072;-87
2023/06/09 09:11:35;;;;;;;13.10;6.63;;;22.90;82.60;;;;;;5052963;28;20044;-88
2023/06/09 09:14:09;;;;;;;11.40;5.63;;;22.90;82.20;;;;;;5053523;28;20041;-87
2023/06/09 09:16:35;;;;;;;10.55;5.18;;;23.10;81.00;;;;;;5053390;28;20076;-88
2023/06/09 09:19:03;;;;;;;12.90;5.68;;;23.10;80.60;;;;;;5070396;28;20071;-88
2023/06/09 09:21:29;;;;;;;13.93;5.90;;;23.20;80.70;;;;;;5056607;28;20044;-87
2023/06/09 09:23:56;;;;;;;13.32;6.45;;;23.30;80.80;;;;;;5057369;28;20410;-87
2023/06/09 09:26:29;;;;;;;11.38;5.60;;;23.40;80.00;;;;;;5057364;28;20041;-87
2023/06/09 09:28:58;;;;;;;12.77;5.93;;;23.50;79.10;;;;;;5057160;28;20517;-87
2023/06/09 09:31:36;;;;;;;13.10;6.18;;;23.60;78.50;;;;;;5056949;28;20133;-88
2023/06/09 09:34:02;;;;;;;11.07;5.90;;;23.70;77.70;;;;;;5057420;28;20041;-88
2023/06/09 09:36:28;;;;;;;15.13;5.78;;;23.80;77.80;;;;;;5073468;28;20060;-88
2023/06/09 09:39:01;;;;;;;11.32;5.95;;;23.90;79.10;;;;;;5073823;28;20482;-87
2023/06/09 09:41:27;;;;;;;12.68;5.97;;;24.00;77.40;;;;;;5073403;28;20115;-88
2023/06/09 09:43:56;;;;;;;11.50;5.22;;;24.10;76.90;;;;;;5056988;28;20124;-88
2023/06/09 09:46:22;;;;;;;11.82;5.22;;;24.20;75.80;;;;;;5074061;28;20067;-88
2023/06/09 09:48:49;;;;;;;11.75;5.97;;;24.30;75.50;;;;;;5056894;28;20041;-88
2023/06/09 09:51:15;;;;;;;10.52;5.32;;;24.40;75.00;;;;;;5074409;28;20043;-88
2023/06/09 09:53:45;;;;;;;10.20;5.57;;;24.40;74.20;;;;;;5073858;28;20039;-88
2023/06/09 09:56:13;;;;;;;14.07;5.57;;;24.60;74.10;;;;;;5073316;28;20501;-88
2023/06/09 09:58:42;;;;;;;10.70;5.00;;;24.70;74.20;;;;;;5073830;28;20525;-88
2023/06/09 10:01:10;;;;;;;10.68;5.18;;;24.80;73.90;;;;;;5056200;28;20071;-87
2023/06/09 10:03:38;;;;;;;11.82;5.15;;;24.90;73.50;;;;;;5073765;28;20047;-88
2023/06/09 10:06:09;;;;;;;10.25;4.80;;;25.00;73.50;;;;;;5073159;28;20055;-88
2023/06/09 10:08:35;;;;;;;10.95;5.55;;;25.20;73.30;;;;;;5056529;28;20040;-88
2023/06/09 10:11:02;;;;;;;11.43;4.97;;;25.30;71.70;;;;;;5073045;28;20036;-87
2023/06/09 10:13:28;;;;;;;10.27;4.75;;;25.40;70.10;;;;;;5070484;28;20485;-88
2023/06/09 10:15:55;;;;;;;14.23;5.53;;;25.50;70.60;;;;;;5072031;28;20037;-88
2023/06/09 10:18:22;;;;;;;11.43;5.53;;;25.60;70.40;;;;;;5071743;28;20044;-88
2023/06/09 10:20:50;;;;;;;10.82;5.20;;;25.70;69.20;;;;;;5072568;28;20043;-88
2023/06/09 10:23:16;;;;;;;10.65;5.35;;;25.80;68.10;;;;;;5071744;28;20513;-88
2023/06/09 10:25:42;;;;;;;9.80;4.60;;;25.90;66.50;;;;;;5071993;28;20048;-88
2023/06/09 10:28:10;;;;;;;8.88;4.88;;;26.00;66.40;;;;;;5071650;28;20068;-87
2023/06/09 10:30:36;;;;;;;9.93;4.90;;;26.10;66.00;;;;;;5071284;28;20083;-88
2023/06/09 10:33:08;;;;;;;10.00;5.57;;;26.20;65.00;;;;;;5070519;28;20040;-88
2023/06/09 10:35:37;;;;;;;9.40;4.57;;;26.30;65.00;;;;;;5071520;28;20048;-88
2023/06/09 10:38:30;;;;;;;9.93;5.03;;;26.40;65.10;;;;;;5053997;28;20126;-88
2023/06/09 10:41:08;;;;;;;12.90;5.60;;;26.50;64.50;;;;;;5071778;28;20666;-88
2023/06/09 10:44:01;;;;;;;8.45;4.28;;;26.60;63.60;;;;;;5072141;28;20037;-88
2023/06/09 10:46:44;;;;;;;11.07;5.07;;;26.70;62.80;;;;;;5055300;28;20044;-88
2023/06/09 10:49:25;;;;;;;8.98;4.90;;;26.70;62.10;;;;;;5072050;28;20059;-88
2023/06/09 10:51:55;;;;;;;8.63;4.70;;;26.90;61.20;;;;;;5054874;28;20045;-87
2023/06/09 10:54:22;;;;;;;10.07;4.25;;;26.90;60.90;;;;;;5071289;28;20033;-88
2023/06/09 10:56:52;;;;;;;9.85;4.55;;;27.00;61.40;;;;;;5071534;28;20082;-88
2023/06/09 10:59:24;;;;;;;9.73;4.80;;;27.20;61.90;;;;;;5054893;28;20037;-88
2023/06/09 11:02:05;;;;;;;10.57;5.03;;;27.30;61.10;;;;;;5055178;28;20098;-88
2023/06/09 11:04:45;;;;;;;9.50;4.68;;;27.40;61.10;;;;;;5055133;28;20044;-88
2023/06/09 11:07:12;;;;;;;9.27;4.40;;;27.50;60.60;;;;;;5071883;28;20545;-88
2023/06/09 11:09:38;;;;;;;10.02;4.90;;;27.60;60.30;;;;;;5054649;28;20037;-88
2023/06/09 11:12:06;;;;;;;10.05;5.30;;;27.70;59.90;;;;;;5071744;28;20118;-88
2023/06/09 11:14:43;;;;;;;12.38;5.60;;;27.80;59.20;;;;;;5071261;28;20063;-88
2023/06/09 11:17:16;;;;;;;10.35;4.90;;;27.90;59.10;;;;;;5053949;28;20041;-88
2023/06/09 11:19:42;;;;;;;9.90;4.70;;;28.00;58.40;;;;;;5053419;28;20040;-88
2023/06/09 11:22:12;;;;;;;11.43;5.35;;;28.10;57.90;;;;;;5055523;28;20036;-88
2023/06/09 11:24:50;;;;;;;10.50;4.93;;;28.10;57.90;;;;;;5072117;28;20085;-88
2023/06/09 11:27:17;;;;;;;8.30;4.65;;;28.20;57.40;;;;;;5071643;28;20038;-88
2023/06/09 11:29:43;;;;;;;8.52;4.68;;;28.30;57.60;;;;;;5071330;28;20283;-88
2023/06/09 11:32:09;;;;;;;12.40;5.18;;;28.30;57.10;;;;;;5071517;28;20067;-88
2023/06/09 11:34:51;;;;;;;19.63;5.88;;;28.40;57.60;;;;;;5072592;28;20575;-88
2023/06/09 11:37:18;;;;;;;11.05;5.03;;;28.60;58.20;;;;;;5071656;28;20040;-88
2023/06/09 11:39:44;;;;;;;9.13;4.55;;;28.60;57.00;;;;;;5070991;28;20513;-88
2023/06/09 11:42:10;;;;;;;10.20;4.80;;;28.70;56.70;;;;;;5054509;28;20048;-88
2023/06/09 11:44:36;;;;;;;9.43;4.55;;;28.80;56.60;;;;;;5054575;28;20032;-88
2023/06/09 11:47:22;;;;;;;8.18;4.63;;;28.90;56.10;;;;;;5055059;28;20033;-88
2023/06/09 11:50:01;;;;;;;11.73;4.65;;;29.00;55.40;;;;;;5071084;28;20045;-89
2023/06/09 11:52:27;;;;;;;8.85;4.80;;;29.00;56.00;;;;;;5070424;28;20044;-88
2023/06/09 11:54:52;;;;;;;9.02;4.65;;;29.10;56.00;;;;;;5070523;28;20047;-89
2023/06/09 11:57:18;;;;;;;9.65;4.53;;;29.20;55.50;;;;;;5069215;28;20064;-88
2023/06/09 11:59:45;;;;;;;9.00;4.50;;;29.30;55.50;;;;;;5070668;28;20119;-89
2023/06/09 12:02:12;;;;;;;9.65;4.65;;;29.40;55.10;;;;;;5053797;28;20048;-89
2023/06/09 12:04:42;;;;;;;8.70;4.57;;;29.50;54.90;;;;;;5054350;28;20421;-88
2023/06/09 12:07:13;;;;;;;10.60;4.78;;;29.60;54.70;;;;;;5070941;28;20402;-89
2023/06/09 12:09:39;;;;;;;10.80;4.80;;;29.70;53.80;;;;;;5054035;28;20032;-89
2023/06/09 12:12:05;;;;;;;9.25;4.63;;;29.70;53.60;;;;;;5070986;28;20041;-88
2023/06/09 12:14:32;;;;;;;9.60;5.05;;;29.70;53.20;;;;;;5071012;28;20040;-89
2023/06/09 12:16:58;;;;;;;11.27;5.00;;;29.80;53.50;;;;;;5054187;28;20107;-88
2023/06/09 12:19:23;;;;;;;9.75;5.15;;;29.80;53.60;;;;;;5054255;28;20494;-88
2023/06/09 12:21:49;;;;;;;9.75;4.70;;;29.80;53.10;;;;;;5053918;28;20053;-88
2023/06/09 12:24:15;;;;;;;11.40;4.80;;;29.90;53.00;;;;;;5053850;28;20374;-88
2023/06/09 12:26:42;;;;;;;10.52;4.80;;;30.00;53.00;;;;;;5053050;28;20047;-88
2023/06/09 12:29:08;;;;;;;10.10;4.80;;;30.10;52.70;;;;;;5070247;28;20068;-89
2023/06/09 12:31:33;;;;;;;11.20;5.22;;;30.10;52.80;;;;;;5069813;28;20125;-89
2023/06/09 12:34:00;;;;;;;9.82;4.78;;;30.20;52.50;;;;;;5070399;28;20079;-89
2023/06/09 12:36:26;;;;;;;8.88;4.57;;;30.30;52.20;;;;;;5070070;28;20500;-89
2023/06/09 12:38:52;;;;;;;8.43;4.68;;;30.40;52.00;;;;;;5053602;28;20063;-88